Aviation Digital Data Service (ADDS)

Output produced by METARs form (1211 UTC 24 February 2018)
found at http://aviationweather.gov/adds/metars/
 
EFHA 241150Z AUTO 02007KT 9999 -SHSN NCD M13/M16 Q1038
EFHA 241120Z AUTO 01006KT CAVOK M14/M16 Q1038
EFHA 241050Z AUTO 35005KT 9999 -SHSN NCD M14/M17 Q1038
EFHA 241020Z AUTO 33005KT CAVOK M15/M17 Q1038
EFHA 240950Z AUTO 32006KT 9999 -SHSN NCD M16/M18 Q1038
EFHA 240920Z AUTO 31005KT 9999 -SHSN NCD M17/M19 Q1038
EFHA 240850Z AUTO 31005KT 9999 -SHSN NCD M19/M21 Q1038
EFHA 240820Z AUTO 30005KT CAVOK M20/M23 Q1038
EFHA 240750Z AUTO 32005KT CAVOK M21/M24 Q1038
EFHA 240720Z AUTO 31006KT CAVOK M22/M24 Q1038
EFHA 240650Z AUTO 31005KT CAVOK M22/M25 Q1038
EFHA 240620Z AUTO 31004KT CAVOK M24/M26 Q1037
EFHA 240550Z AUTO 31007KT CAVOK M23/M25 Q1037
EFHA 240520Z AUTO 32005KT CAVOK M24/M26 Q1037
EFHA 240450Z AUTO 32007KT CAVOK M23/M26 Q1037
EFHA 240420Z AUTO 32006KT CAVOK M23/M25 Q1037
EFHA 240350Z AUTO 32005KT CAVOK M23/M25 Q1036
EFHA 240320Z AUTO 32005KT CAVOK M22/M24 Q1036
EFHA 240250Z AUTO 31006KT CAVOK M21/M23 Q1036
EFHA 240220Z AUTO 32006KT CAVOK M20/M22 Q1036
EFHA 240150Z AUTO 31007KT CAVOK M20/M22 Q1036
EFHA 240120Z AUTO 31007KT CAVOK M21/M23 Q1036
EFHA 240050Z AUTO 31006KT CAVOK M20/M22 Q1035
EFHA 240020Z AUTO 32005KT CAVOK M20/M22 Q1035
EFHA 232350Z AUTO 32006KT CAVOK M20/M22 Q1035
EFHA 232320Z AUTO 32005KT CAVOK M19/M21 Q1035
EFHA 232250Z AUTO 33005KT CAVOK M18/M19 Q1035
EFHA 232220Z AUTO 32005KT 9999 -SHSN NCD M17/M19 Q1034
EFHA 232150Z AUTO 32006KT CAVOK M17/M19 Q1034
EFHA 232120Z AUTO 31006KT CAVOK M17/M18 Q1034
EFHA 232050Z AUTO 31006KT CAVOK M17/M18 Q1034
EFHA 232020Z AUTO 31004KT CAVOK M17/M18 Q1033
EFHA 231950Z AUTO 32004KT CAVOK M17/M18 Q1033
EFHA 231920Z AUTO 36006KT CAVOK M15/M17 Q1033
EFHA 231850Z AUTO 01005KT CAVOK M15/M16 Q1033
EFHA 231820Z AUTO 33005KT CAVOK M15/M17 Q1033
EFHA 231750Z AUTO 33005KT CAVOK M15/M16 Q1032
EFHA 231720Z AUTO 34005KT CAVOK M14/M16 Q1032
EFHA 231650Z AUTO 33006KT CAVOK M14/M16 Q1032
EFHA 231620Z AUTO 36004KT CAVOK M12/M15 Q1031
EFHA 231550Z AUTO 02005KT CAVOK M12/M15 Q1031
EFHA 231520Z AUTO 03005KT CAVOK M11/M15 Q1031
EFHA 231450Z AUTO 03005KT CAVOK M11/M15 Q1030
EFHA 231420Z AUTO 03007KT CAVOK M10/M14 Q1030
EFHA 231350Z AUTO 02007KT CAVOK M10/M14 Q1030
EFHA 231320Z AUTO 01008KT CAVOK M10/M14 Q1030
EFHA 231250Z AUTO 02008KT 9999 FEW014 M10/M14 Q1029
EFHA 231220Z AUTO 02009KT 9999 -SN FEW016 M10/M14 Q1029
EFHA 231150Z 01006KT 9999 FEW012 M11/M14 Q1029
EFHA 231120Z 02006KT CAVOK M11/M14 Q1029
EFHA 231050Z 02006KT CAVOK M11/M14 Q1029
EFHA 231020Z 36004KT CAVOK M12/M15 Q1028
EFHA 230950Z 36004KT CAVOK M12/M15 Q1028
EFHA 230920Z 30005KT CAVOK M14/M16 Q1028
EFHA 230850Z 32005KT CAVOK M16/M18 Q1028
EFHA 230820Z 32006KT CAVOK M17/M19 Q1028
EFHA 230750Z 32005KT CAVOK M18/M20 Q1027
EFHA 230720Z VRB02KT 9999 FEW003 FEW044 M19/M21 Q1027
EFHA 230650Z 32003KT 9999 SCT004 BKN044 M20/M22 Q1027
EFHA 230620Z AUTO 31005KT 9999 -SHSN BKN044 M20/M22 Q1027
EFHA 230550Z AUTO 31003KT 9999 BKN043 M20/M22 Q1027
EFHA 230520Z AUTO 30003KT 9999 -SG BKN045 M18/M20 Q1027
EFHA 230450Z AUTO 31003KT 9999 -SN FEW051 M19/M21 Q1026
EFHA 230420Z AUTO VRB03KT 290V360 CAVOK M18/M20 Q1026
EFHA 230350Z AUTO 33002KT 9999 -SN NCD M18/M19 Q1026 RESN
EFHA 230320Z AUTO 00000KT 9999 -SN FEW032 SCT063 M16/M17 Q1026 RESN
EFHA 230250Z AUTO 00000KT 1100 -SN BKN022 OVC038 M16/M18 Q1026 RESN
EFHA 230220Z AUTO 15001KT 1700 -SN OVC029 M16/M18 Q1026
EFHA 230150Z AUTO 16001KT 9999 -SN FEW028 BKN044 M17/M19 Q1026 RESN
EFHA 230120Z AUTO 15002KT 1500 SN OVC024 M16/M18 Q1026
EFHA 230050Z AUTO 20001KT 1500 SN OVC019 M15/M16 Q1026
EFHA 230020Z AUTO VRB00KT 0800 SN OVC020 M15/M17 Q1026